Time,TemperatureF,DewpointF,PressureIn,WindDirection,WindDirectionDegrees,WindSpeedMPH,WindSpeedGustMPH,Humidity,HourlyPrecipIn,Conditions,Clouds,dailyrainin,SoftwareType,DateUTC
2013-02-21 00:11:00,13.0,10.0,30.10,ESE,111,3.0,11.0,87,0.00,,,0.00,,2013-02-21 06:11:00,
2013-02-21 00:21:00,13.0,10.0,30.10,SE,137,2.0,8.0,87,0.00,,,0.00,,2013-02-21 06:21:00,
2013-02-21 00:31:00,13.0,10.0,30.10,South,191,4.0,8.0,87,0.00,,,0.00,,2013-02-21 06:31:00,
2013-02-21 00:41:00,13.0,10.0,30.10,South,191,4.0,8.0,87,0.00,,,0.00,,2013-02-21 06:41:00,
2013-02-21 00:51:00,13.0,10.0,30.10,SSE,163,3.0,9.0,88,0.00,,,0.00,,2013-02-21 06:51:00,
2013-02-21 01:01:00,13.0,10.0,30.10,SSE,149,4.0,10.0,88,0.00,,,0.00,,2013-02-21 07:01:00,
2013-02-21 01:32:00,13.0,10.0,30.10,South,183,5.0,9.0,89,0.00,,,0.00,,2013-02-21 07:32:00,
2013-02-21 01:42:00,14.0,11.0,30.10,SSE,158,4.0,10.0,89,0.00,,,0.00,,2013-02-21 07:42:00,
2013-02-21 01:52:00,14.0,11.0,30.10,SSE,158,4.0,10.0,89,0.00,,,0.00,,2013-02-21 07:52:00,
2013-02-21 02:01:00,14.0,11.0,30.10,SE,143,3.0,8.0,89,0.00,,,0.00,,2013-02-21 08:01:00,
2013-02-21 02:11:00,14.0,11.0,30.10,SE,143,3.0,8.0,89,0.00,,,0.00,,2013-02-21 08:11:00,
2013-02-21 02:21:00,14.0,11.0,30.10,ESE,117,3.0,9.0,89,0.00,,,0.00,,2013-02-21 08:21:00,
2013-02-21 02:32:00,14.0,11.0,30.10,South,174,3.0,10.0,89,0.00,,,0.00,,2013-02-21 08:32:00,
2013-02-21 02:41:00,14.0,11.0,30.10,South,174,3.0,10.0,89,0.00,,,0.00,,2013-02-21 08:41:00,
2013-02-21 02:52:00,14.0,11.0,30.10,SSE,168,4.0,11.0,89,0.00,,,0.00,,2013-02-21 08:52:00,
2013-02-21 03:01:00,14.0,11.0,30.10,SSE,148,4.0,8.0,89,0.00,,,0.00,,2013-02-21 09:01:00,
2013-02-21 03:11:00,14.0,11.0,30.10,SSE,148,4.0,8.0,89,0.00,,,0.00,,2013-02-21 09:11:00,
2013-02-21 03:22:00,14.0,12.0,30.10,South,172,5.0,10.0,90,0.00,,,0.00,,2013-02-21 09:22:00,
2013-02-21 03:31:00,14.0,12.0,30.10,South,171,3.0,11.0,90,0.00,,,0.00,,2013-02-21 09:31:00,
2013-02-21 03:41:00,14.0,12.0,30.10,South,171,3.0,11.0,90,0.00,,,0.00,,2013-02-21 09:41:00,
2013-02-21 03:52:00,14.0,12.0,30.10,SSE,163,3.0,8.0,90,0.00,,,0.00,,2013-02-21 09:52:00,
2013-02-21 04:01:00,14.0,12.0,30.10,South,175,4.0,8.0,90,0.00,,,0.00,,2013-02-21 10:01:00,
2013-02-21 04:11:00,14.0,12.0,30.10,South,175,4.0,8.0,90,0.00,,,0.00,,2013-02-21 10:11:00,
2013-02-21 04:21:00,14.0,12.0,30.10,SSE,150,6.0,14.0,90,0.00,,,0.00,,2013-02-21 10:21:00,
2013-02-21 04:31:00,14.0,11.0,30.10,ESE,112,3.0,8.0,89,0.00,,,0.00,,2013-02-21 10:31:00,
2013-02-21 04:41:00,14.0,11.0,30.10,ESE,112,3.0,8.0,89,0.00,,,0.00,,2013-02-21 10:41:00,
2013-02-21 04:51:00,14.0,11.0,30.09,SE,132,4.0,8.0,89,0.00,,,0.00,,2013-02-21 10:51:00,
2013-02-21 05:01:00,14.0,11.0,30.09,SE,146,2.0,10.0,89,0.00,,,0.00,,2013-02-21 11:01:00,
2013-02-21 05:11:00,14.0,11.0,30.09,SE,146,2.0,10.0,89,0.00,,,0.00,,2013-02-21 11:11:00,
2013-02-21 05:21:00,14.0,11.0,30.09,SE,142,3.0,9.0,89,0.00,,,0.00,,2013-02-21 11:21:00,
2013-02-21 05:31:00,14.0,12.0,30.09,SSE,148,1.0,6.0,90,0.00,,,0.00,,2013-02-21 11:31:00,
2013-02-21 05:41:00,14.0,12.0,30.09,SSE,148,1.0,6.0,90,0.00,,,0.00,,2013-02-21 11:41:00,
2013-02-21 05:52:00,14.0,12.0,30.10,SSE,157,2.0,4.0,90,0.00,,,0.00,,2013-02-21 11:52:00,
2013-02-21 06:01:00,15.0,13.0,30.10,SSE,152,2.0,6.0,90,0.00,,,0.00,,2013-02-21 12:01:00,
2013-02-21 06:11:00,15.0,13.0,30.10,SSE,152,2.0,6.0,90,0.00,,,0.00,,2013-02-21 12:11:00,
2013-02-21 06:21:00,15.0,13.0,30.10,SE,143,1.0,5.0,90,0.00,,,0.00,,2013-02-21 12:21:00,
2013-02-21 06:32:00,15.0,12.0,30.09,SE,139,2.0,4.0,89,0.00,,,0.00,,2013-02-21 12:32:00,
2013-02-21 06:42:00,15.0,12.0,30.09,SE,139,2.0,4.0,89,0.00,,,0.00,,2013-02-21 12:42:00,
2013-02-21 06:53:00,15.0,12.0,30.09,SSE,167,3.0,8.0,89,0.00,,,0.00,,2013-02-21 12:53:00,
2013-02-21 07:01:00,15.0,12.0,30.09,SSE,150,2.0,7.0,89,0.00,,,0.00,,2013-02-21 13:01:00,
2013-02-21 07:12:00,15.0,12.0,30.09,SSE,150,2.0,7.0,89,0.00,,,0.00,,2013-02-21 13:12:00,
2013-02-21 07:22:00,15.0,12.0,30.09,SE,139,2.0,7.0,89,0.00,,,0.00,,2013-02-21 13:22:00,
2013-02-21 07:32:00,15.0,12.0,30.09,SSE,148,1.0,4.0,89,0.00,,,0.00,,2013-02-21 13:32:00,
2013-02-21 07:41:00,15.0,12.0,30.09,SSE,148,1.0,4.0,89,0.00,,,0.00,,2013-02-21 13:41:00,
2013-02-21 07:52:00,16.0,13.0,30.10,SE,136,2.0,4.0,89,0.00,,,0.00,,2013-02-21 13:52:00,
2013-02-21 08:02:00,16.0,13.0,30.11,SE,136,0.0,2.0,89,0.00,,,0.00,,2013-02-21 14:02:00,
2013-02-21 08:11:00,16.0,13.0,30.11,SE,136,0.0,2.0,89,0.00,,,0.00,,2013-02-21 14:11:00,
2013-02-21 08:21:00,16.0,13.0,30.11,SSE,154,2.0,5.0,89,0.00,,,0.00,,2013-02-21 14:21:00,
2013-02-21 08:32:00,16.0,13.0,30.11,SSE,151,3.0,7.0,89,0.00,,,0.00,,2013-02-21 14:32:00,
2013-02-21 08:42:00,16.0,13.0,30.11,SSE,151,3.0,7.0,89,0.00,,,0.00,,2013-02-21 14:42:00,
2013-02-21 08:52:00,16.0,13.0,30.12,SE,142,3.0,8.0,89,0.00,,,0.00,,2013-02-21 14:52:00,
2013-02-21 09:01:00,17.0,14.0,30.12,SE,135,2.0,8.0,88,0.00,,,0.00,,2013-02-21 15:01:00,
2013-02-21 09:12:00,17.0,14.0,30.12,SE,135,2.0,8.0,88,0.00,,,0.00,,2013-02-21 15:12:00,
2013-02-21 09:21:00,17.0,14.0,30.13,SE,142,3.0,8.0,88,0.00,,,0.00,,2013-02-21 15:21:00,
2013-02-21 09:32:00,17.0,14.0,30.13,South,181,4.0,8.0,88,0.00,,,0.00,,2013-02-21 15:32:00,
2013-02-21 09:42:00,17.0,14.0,30.13,South,181,4.0,8.0,88,0.00,,,0.00,,2013-02-21 15:42:00,
2013-02-21 09:52:00,17.0,14.0,30.12,SSE,147,4.0,12.0,88,0.00,,,0.00,,2013-02-21 15:52:00,
2013-02-21 10:01:00,17.0,14.0,30.13,SE,141,4.0,9.0,86,0.00,,,0.00,,2013-02-21 16:01:00,
2013-02-21 10:12:00,17.0,14.0,30.13,SE,141,4.0,9.0,86,0.00,,,0.00,,2013-02-21 16:12:00,
2013-02-21 10:21:00,17.0,14.0,30.12,SSE,164,4.0,8.0,86,0.00,,,0.00,,2013-02-21 16:21:00,
2013-02-21 10:32:00,17.0,13.0,30.12,South,173,4.0,8.0,85,0.00,,,0.00,,2013-02-21 16:32:00,
2013-02-21 10:42:00,18.0,14.0,30.12,SE,138,4.0,8.0,83,0.00,,,0.00,,2013-02-21 16:42:00,
2013-02-21 10:52:00,18.0,14.0,30.12,SE,138,4.0,8.0,83,0.00,,,0.00,,2013-02-21 16:52:00,
2013-02-21 11:01:00,18.0,14.0,30.12,South,172,4.0,7.0,83,0.00,,,0.00,,2013-02-21 17:01:00,
2013-02-21 11:11:00,18.0,14.0,30.12,South,172,4.0,7.0,83,0.00,,,0.00,,2013-02-21 17:11:00,
2013-02-21 11:21:00,18.0,14.0,30.12,SSE,147,4.0,5.0,83,0.00,,,0.00,,2013-02-21 17:21:00,
2013-02-21 11:32:00,18.0,13.0,30.12,SSE,153,6.0,9.0,81,0.00,,,0.00,,2013-02-21 17:32:00,
2013-02-21 11:42:00,18.0,13.0,30.12,SSE,153,6.0,9.0,81,0.00,,,0.00,,2013-02-21 17:42:00,
2013-02-21 11:52:00,19.0,14.0,30.12,SE,138,5.0,8.0,81,0.00,,,0.00,,2013-02-21 17:52:00,
2013-02-21 12:01:00,20.0,15.0,30.13,SSE,162,5.0,7.0,79,0.00,,,0.00,,2013-02-21 18:01:00,
2013-02-21 12:11:00,20.0,15.0,30.13,SSE,162,5.0,7.0,79,0.00,,,0.00,,2013-02-21 18:11:00,
2013-02-21 12:22:00,20.0,15.0,30.13,South,178,4.0,8.0,80,0.00,,,0.00,,2013-02-21 18:22:00,
2013-02-21 12:31:00,20.0,15.0,30.13,South,174,3.0,7.0,80,0.00,,,0.00,,2013-02-21 18:31:00,
2013-02-21 12:42:00,20.0,15.0,30.13,South,174,3.0,7.0,80,0.00,,,0.00,,2013-02-21 18:42:00,
2013-02-21 12:52:00,21.0,16.0,30.13,SSE,156,4.0,10.0,79,0.00,,,0.00,,2013-02-21 18:52:00,
2013-02-21 13:01:00,21.0,16.0,30.12,South,171,3.0,6.0,80,0.00,,,0.00,,2013-02-21 19:01:00,
2013-02-21 13:12:00,21.0,16.0,30.12,South,171,3.0,6.0,80,0.00,,,0.00,,2013-02-21 19:12:00,
2013-02-21 13:21:00,21.0,16.0,30.11,SSE,162,5.0,11.0,80,0.00,,,0.00,,2013-02-21 19:21:00,
2013-02-21 13:31:00,22.0,16.0,30.11,SE,139,4.0,8.0,78,0.00,,,0.00,,2013-02-21 19:31:00,
2013-02-21 13:41:00,22.0,16.0,30.11,SE,139,4.0,8.0,78,0.00,,,0.00,,2013-02-21 19:41:00,
2013-02-21 13:51:00,23.0,16.0,30.11,SE,145,4.0,9.0,75,0.00,,,0.00,,2013-02-21 19:51:00,
2013-02-21 14:01:00,23.0,15.0,30.10,SSE,151,4.0,10.0,72,0.00,,,0.00,,2013-02-21 20:01:00,
2013-02-21 14:11:00,23.0,14.0,30.09,SSE,162,5.0,9.0,69,0.00,,,0.00,,2013-02-21 20:11:00,
2013-02-21 14:21:00,23.0,14.0,30.09,SSE,162,5.0,9.0,69,0.00,,,0.00,,2013-02-21 20:21:00,
2013-02-21 14:32:00,23.0,14.0,30.09,SSE,157,5.0,9.0,67,0.00,,,0.00,,2013-02-21 20:32:00,
2013-02-21 14:41:00,23.0,14.0,30.09,SSE,157,5.0,9.0,67,0.00,,,0.00,,2013-02-21 20:41:00,
2013-02-21 14:53:00,23.0,13.0,30.08,SSE,167,5.0,7.0,65,0.00,,,0.00,,2013-02-21 20:53:00,
2013-02-21 15:02:00,24.0,14.0,30.08,SSE,157,3.0,9.0,65,0.00,,,0.00,,2013-02-21 21:02:00,
2013-02-21 15:11:00,24.0,14.0,30.08,SSE,157,3.0,9.0,65,0.00,,,0.00,,2013-02-21 21:11:00,
2013-02-21 15:21:00,24.0,14.0,30.07,SE,134,3.0,8.0,64,0.00,,,0.00,,2013-02-21 21:21:00,
2013-02-21 15:31:00,24.0,14.0,30.07,SE,126,3.0,8.0,65,0.00,,,0.00,,2013-02-21 21:31:00,
2013-02-21 15:42:00,23.0,14.0,30.07,SE,141,2.0,4.0,69,0.00,,,0.00,,2013-02-21 21:42:00,
2013-02-21 15:52:00,23.0,14.0,30.07,SE,141,2.0,4.0,69,0.00,,,0.00,,2013-02-21 21:52:00,
2013-02-21 16:01:00,23.0,14.0,30.07,SE,133,3.0,7.0,68,0.00,,,0.00,,2013-02-21 22:01:00,
2013-02-21 16:11:00,23.0,14.0,30.07,SE,133,3.0,7.0,68,0.00,,,0.00,,2013-02-21 22:11:00,
2013-02-21 16:21:00,23.0,14.0,30.07,ESE,115,4.0,9.0,68,0.00,,,0.00,,2013-02-21 22:21:00,
2013-02-21 16:31:00,22.0,14.0,30.07,SE,130,3.0,7.0,70,0.00,,,0.00,,2013-02-21 22:31:00,
2013-02-21 16:42:00,22.0,14.0,30.07,SE,130,3.0,7.0,70,0.00,,,0.00,,2013-02-21 22:42:00,
2013-02-21 16:52:00,22.0,14.0,30.07,SE,136,2.0,5.0,71,0.00,,,0.00,,2013-02-21 22:52:00,
2013-02-21 17:01:00,22.0,14.0,30.07,SE,136,2.0,7.0,71,0.00,,,0.00,,2013-02-21 23:01:00,
2013-02-21 17:11:00,22.0,14.0,30.07,SE,136,2.0,7.0,71,0.00,,,0.00,,2013-02-21 23:11:00,
2013-02-21 17:21:00,21.0,14.0,30.06,SE,140,2.0,6.0,73,0.00,,,0.00,,2013-02-21 23:21:00,
2013-02-21 17:31:00,21.0,14.0,30.06,SE,138,3.0,8.0,73,0.00,,,0.00,,2013-02-21 23:31:00,
2013-02-21 17:41:00,21.0,14.0,30.06,SE,138,3.0,8.0,73,0.00,,,0.00,,2013-02-21 23:41:00,
2013-02-21 17:52:00,20.0,13.0,30.07,SE,134,1.0,6.0,74,0.00,,,0.00,,2013-02-21 23:52:00,
2013-02-21 18:01:00,20.0,13.0,30.07,SE,140,3.0,7.0,74,0.00,,,0.00,,2013-02-22 00:01:00,
2013-02-21 18:11:00,20.0,13.0,30.07,SE,140,3.0,7.0,74,0.00,,,0.00,,2013-02-22 00:11:00,
2013-02-21 18:21:00,19.0,12.0,30.07,SE,140,2.0,8.0,75,0.00,,,0.00,,2013-02-22 00:21:00,
2013-02-21 18:31:00,19.0,13.0,30.07,SE,124,2.0,7.0,77,0.00,,,0.00,,2013-02-22 00:31:00,
2013-02-21 18:41:00,19.0,13.0,30.07,SE,124,2.0,7.0,77,0.00,,,0.00,,2013-02-22 00:41:00,
2013-02-21 18:52:00,18.0,12.0,30.07,SE,131,4.0,7.0,78,0.00,,,0.00,,2013-02-22 00:52:00,
2013-02-21 19:01:00,18.0,13.0,30.07,SSE,161,3.0,7.0,79,0.00,,,0.00,,2013-02-22 01:01:00,
2013-02-21 19:11:00,18.0,13.0,30.07,SSE,161,3.0,7.0,79,0.00,,,0.00,,2013-02-22 01:11:00,
2013-02-21 19:21:00,18.0,13.0,30.08,SE,134,3.0,8.0,80,0.00,,,0.00,,2013-02-22 01:21:00,
2013-02-21 19:32:00,17.0,12.0,30.08,SE,127,1.0,8.0,81,0.00,,,0.00,,2013-02-22 01:32:00,
2013-02-21 19:42:00,17.0,12.0,30.08,SE,127,1.0,8.0,81,0.00,,,0.00,,2013-02-22 01:42:00,
2013-02-21 19:52:00,17.0,12.0,30.08,SE,137,3.0,6.0,82,0.00,,,0.00,,2013-02-22 01:52:00,
2013-02-21 20:02:00,16.0,11.0,30.08,SE,129,2.0,9.0,82,0.00,,,0.00,,2013-02-22 02:02:00,
2013-02-21 20:11:00,16.0,11.0,30.08,SE,129,2.0,9.0,82,0.00,,,0.00,,2013-02-22 02:11:00,
2013-02-21 20:21:00,16.0,12.0,30.08,SE,136,3.0,5.0,83,0.00,,,0.00,,2013-02-22 02:21:00,
2013-02-21 20:31:00,16.0,12.0,30.08,SE,141,2.0,6.0,83,0.00,,,0.00,,2013-02-22 02:31:00,
2013-02-21 20:42:00,16.0,12.0,30.08,SE,141,2.0,6.0,83,0.00,,,0.00,,2013-02-22 02:42:00,
2013-02-21 20:52:00,16.0,12.0,30.08,SE,126,2.0,5.0,83,0.00,,,0.00,,2013-02-22 02:52:00,
2013-02-21 21:01:00,15.0,11.0,30.08,SE,132,1.0,3.0,84,0.00,,,0.00,,2013-02-22 03:01:00,
2013-02-21 21:11:00,15.0,11.0,30.08,SE,132,1.0,3.0,84,0.00,,,0.00,,2013-02-22 03:11:00,
2013-02-21 21:21:00,15.0,11.0,30.08,SE,128,2.0,6.0,84,0.00,,,0.00,,2013-02-22 03:21:00,
2013-02-21 21:31:00,15.0,11.0,30.08,ESE,118,2.0,5.0,84,0.00,,,0.00,,2013-02-22 03:31:00,
2013-02-21 21:41:00,15.0,11.0,30.08,ESE,118,2.0,5.0,84,0.00,,,0.00,,2013-02-22 03:41:00,
2013-02-21 21:52:00,15.0,11.0,30.07,SE,128,3.0,7.0,85,0.00,,,0.00,,2013-02-22 03:52:00,
2013-02-21 22:01:00,15.0,11.0,30.07,ESE,117,1.0,4.0,85,0.00,,,0.00,,2013-02-22 04:01:00,
2013-02-21 22:11:00,15.0,11.0,30.07,ESE,117,1.0,4.0,85,0.00,,,0.00,,2013-02-22 04:11:00,
2013-02-21 22:21:00,15.0,11.0,30.07,ESE,121,1.0,3.0,85,0.00,,,0.00,,2013-02-22 04:21:00,
2013-02-21 22:32:00,15.0,11.0,30.06,ESE,121,1.0,2.0,85,0.00,,,0.00,,2013-02-22 04:32:00,
2013-02-21 22:42:00,15.0,11.0,30.06,ESE,121,1.0,2.0,85,0.00,,,0.00,,2013-02-22 04:42:00,
2013-02-21 22:52:00,15.0,11.0,30.05,ESE,118,1.0,3.0,85,0.00,,,0.00,,2013-02-22 04:52:00,
2013-02-21 23:01:00,15.0,11.0,30.05,ESE,111,1.0,4.0,85,0.00,,,0.00,,2013-02-22 05:01:00,
2013-02-21 23:12:00,15.0,11.0,30.05,ESE,111,1.0,4.0,85,0.00,,,0.00,,2013-02-22 05:12:00,
2013-02-21 23:22:00,15.0,11.0,30.05,SE,125,2.0,4.0,85,0.00,,,0.00,,2013-02-22 05:22:00,
2013-02-21 23:32:00,14.0,10.0,30.05,SE,137,3.0,9.0,84,0.00,,,0.00,,2013-02-22 05:32:00,
2013-02-21 23:41:00,14.0,10.0,30.05,SE,137,3.0,9.0,84,0.00,,,0.00,,2013-02-22 05:41:00,
2013-02-21 23:52:00,14.0,10.0,30.05,SE,137,2.0,7.0,85,0.00,,,0.00,,2013-02-22 05:52:00,